Portada
METAR-TAF:

METAR-TAF

Aeroports :

Culiacán, Mèxic

latitud: 24-49N, longitud: 107-24W, altitud: 39 m

Observació

L'informe es va fer fa 1 hora i 14 minuts, a les 03:46 UTC
Vent calma
Temperatura 25°C
Humitat 54%
Pressió 1011 hPa
Visibilitat: 16.1 km
Cel clar

METAR: MMCL 260346Z 00000KT 10SM SKC 25/15 A2984

Hora: 23:00 (05:00 UTC)

Pronòstic

L'informe es va fer fa 12 hores i 18 minuts, a les 16:42 UTC
Pronòstic vàlid del 25 a les 18 UTC al 26 a les 18 UTC
Vent 10 kt del Oest/Sud-Oest
Visibilitat: 10 km
Cel clar
A partir de les 26 a les 0400 UTC
Vent 5 kt del Sud/Sud-Est
Visibilitat: 10 km
Núvols disperses a una alçada de 25000 ft
A partir de les 26 a les 1600 UTC
Vent 8 kt del Sud-Oest
Visibilitat: 10 km
Núvols disperses a una alçada de 25000 ft

TAF: MMCL 251642Z 2518/2618 24010KT P6SM SKC FM260400 16005KT P6SM SCT250 FM261600 22008KT P6SM SCT250

Observacions i pronòstics meteorològics de més de 4000 aeroports (METAR i TAF).

Les estacions disponibles són els punts grocs i vermells al mapa.

Posi el ratolí al punt desitjat per veure el nom de l'estació.

Feu clic per veure les observacions i els pronòstics meteorològics.

Per canviar el mapa: feu clic els botons verds amb una creu de color negre per apropar; al botó verd amb un guió per allunyar la imatge; o en les fletxes verdes per a mapes adjacents.


METAR-TAF: